createdAt,value
2019-03-20T00:01:51.000Z,24.77
2019-03-20T00:11:51.000Z,24.69
2019-03-20T00:21:51.000Z,24.61
2019-03-20T00:31:51.000Z,24.54
2019-03-20T00:41:51.000Z,24.54
2019-03-20T00:51:51.000Z,24.48
2019-03-20T01:01:51.000Z,24.43
2019-03-20T01:11:51.000Z,24.45
2019-03-20T01:21:51.000Z,24.38
2019-03-20T01:31:51.000Z,24.32
2019-03-20T01:41:51.000Z,24.29
2019-03-20T01:51:51.000Z,24.23
2019-03-20T02:01:51.000Z,24.2
2019-03-20T02:11:51.000Z,24.17
2019-03-20T02:21:52.000Z,24.18
2019-03-20T02:31:52.000Z,24.09
2019-03-20T02:41:51.000Z,24.09
2019-03-20T02:51:51.000Z,24.03
2019-03-20T03:01:51.000Z,24.01
2019-03-20T03:11:51.000Z,23.95
2019-03-20T03:21:55.000Z,23.94
2019-03-20T03:31:51.000Z,23.94
2019-03-20T03:41:51.000Z,23.86
2019-03-20T03:51:52.000Z,23.84
2019-03-20T04:01:51.000Z,23.83
2019-03-20T04:11:51.000Z,23.84
2019-03-20T04:21:51.000Z,23.8
2019-03-20T04:31:51.000Z,23.72
2019-03-20T04:41:51.000Z,23.68
2019-03-20T04:51:51.000Z,23.61
2019-03-20T05:01:51.000Z,23.67
2019-03-20T05:11:51.000Z,23.57
2019-03-20T05:21:51.000Z,23.6
2019-03-20T05:31:51.000Z,23.56
2019-03-20T05:41:51.000Z,23.57
2019-03-20T05:51:51.000Z,23.54
2019-03-20T06:01:51.000Z,23.52
2019-03-20T06:11:51.000Z,23.54
2019-03-20T06:21:51.000Z,23.55
2019-03-20T06:31:51.000Z,23.58
2019-03-20T06:41:51.000Z,23.56
2019-03-20T06:51:51.000Z,23.55
2019-03-20T07:01:51.000Z,23.72
2019-03-20T07:11:51.000Z,23.75
2019-03-20T07:21:51.000Z,23.79
2019-03-20T07:31:52.000Z,23.84
2019-03-20T07:41:52.000Z,23.9
2019-03-20T07:51:52.000Z,23.99
2019-03-20T08:01:52.000Z,24.01
2019-03-20T08:11:52.000Z,24.04
2019-03-20T08:21:52.000Z,24.07
2019-03-20T08:31:52.000Z,24.08
2019-03-20T08:41:52.000Z,24.12
2019-03-20T08:51:52.000Z,24.2
2019-03-20T09:01:52.000Z,24.28
2019-03-20T09:11:52.000Z,24.3
2019-03-20T09:21:52.000Z,24.33
2019-03-20T09:31:52.000Z,24.38
2019-03-20T09:41:52.000Z,24.45
2019-03-20T09:51:52.000Z,24.55
2019-03-20T10:01:52.000Z,24.55
2019-03-20T10:11:52.000Z,24.63
2019-03-20T10:21:52.000Z,24.66
2019-03-20T10:31:52.000Z,24.69
2019-03-20T10:41:52.000Z,24.76
2019-03-20T10:51:52.000Z,24.84
2019-03-20T11:01:52.000Z,24.84
2019-03-20T11:11:53.000Z,24.87
2019-03-20T11:21:52.000Z,24.91
2019-03-20T11:31:52.000Z,24.97
2019-03-20T11:41:52.000Z,25.01
2019-03-20T11:51:52.000Z,25.02
2019-03-20T12:01:52.000Z,25.13
2019-03-20T12:21:52.000Z,25.15
2019-03-20T12:41:52.000Z,25.18
2019-03-20T12:51:52.000Z,25.24
2019-03-20T13:01:52.000Z,25.26
2019-03-20T13:11:52.000Z,25.3
2019-03-20T13:21:52.000Z,25.34
2019-03-20T13:31:52.000Z,25.37
2019-03-20T13:41:52.000Z,25.42
2019-03-20T13:51:52.000Z,25.5
2019-03-20T14:01:52.000Z,25.45
2019-03-20T14:11:52.000Z,25.45
2019-03-20T14:21:52.000Z,25.44
2019-03-20T14:31:52.000Z,25.43
2019-03-20T14:41:52.000Z,25.39
2019-03-20T14:51:52.000Z,25.43
2019-03-20T15:01:52.000Z,25.4
2019-03-20T15:11:53.000Z,25.42
2019-03-20T15:21:52.000Z,25.43
2019-03-20T15:31:52.000Z,25.43
2019-03-20T15:41:53.000Z,25.41
2019-03-20T15:51:54.000Z,25.42
2019-03-20T16:01:53.000Z,25.43
2019-03-20T16:11:53.000Z,25.46
2019-03-20T16:21:53.000Z,25.48
2019-03-20T16:31:53.000Z,25.49
2019-03-20T16:41:54.000Z,25.57
2019-03-20T16:51:53.000Z,25.65
2019-03-20T17:01:53.000Z,25.63
2019-03-20T17:11:53.000Z,25.93
2019-03-20T17:21:53.000Z,26.01
2019-03-20T17:31:53.000Z,26
2019-03-20T17:41:53.000Z,25.94
2019-03-20T17:51:54.000Z,25.9
2019-03-20T18:01:56.000Z,25.95
2019-03-20T18:11:53.000Z,25.91
2019-03-20T18:21:53.000Z,25.94
2019-03-20T18:31:53.000Z,25.92
2019-03-20T18:41:54.000Z,25.91
2019-03-20T18:51:53.000Z,25.93
2019-03-20T19:01:57.000Z,25.92
2019-03-20T19:11:53.000Z,25.89
2019-03-20T19:21:54.000Z,25.93
2019-03-20T19:31:53.000Z,25.93
2019-03-20T19:41:53.000Z,25.92
2019-03-20T19:51:53.000Z,25.92
2019-03-20T20:01:53.000Z,25.9
2019-03-20T20:11:53.000Z,25.81
2019-03-20T20:21:53.000Z,25.72
2019-03-20T20:31:53.000Z,25.82
2019-03-20T20:41:56.000Z,25.84
2019-03-20T20:51:53.000Z,25.77
2019-03-20T21:01:53.000Z,25.8
2019-03-20T21:11:53.000Z,25.8
2019-03-20T21:21:53.000Z,25.79
2019-03-20T21:51:53.000Z,25.66
2019-03-20T22:01:53.000Z,25.53
2019-03-20T22:11:53.000Z,25.5
2019-03-20T22:21:53.000Z,25.47
2019-03-20T22:31:53.000Z,25.43
2019-03-20T22:41:53.000Z,25.38
2019-03-20T22:51:56.000Z,25.38
2019-03-20T23:01:53.000Z,25.31
2019-03-20T23:11:53.000Z,25.24
2019-03-20T23:21:53.000Z,25.19
2019-03-20T23:31:53.000Z,25.19
2019-03-20T23:41:53.000Z,25.11
2019-03-20T23:51:56.000Z,25.03
